Charleston, WV (25302)

5:34 PM EST on March 06, 2015 (GMT -0500)
Upper Woodward Dr. Area | Change Station
CLOSE
Current Station
Personal Weather Station
Location: Charleston, WV
Elevation: 873 ft
Nearby Weather Stations

Elev 873 ft 38.42 °N, 81.69 °W | Updated 5 seconds ago

Scattered Clouds
Scattered Clouds
25.7 °F
Feels Like 26 °F
N
0.0
Wind Variable Wind from SSE
Gusts 0.0 mph

Today
High -- | Low -- °F
--% Chance of Precip.
Yesterday
High -- | Low -- °F
Precip. -- in
6:51 AM 6:24 PM
Full, 99% visible
Pressure 30.45 in
Visibility 10.0 miles
Clouds Scattered Clouds 2500 ft
Scattered Clouds 30000 ft
Windchill 26 °F
Dew Point 16 °F
Humidity 67%
Rainfall in
Snow Depth Not available.
UV 1.0 out of 12
Pollen 1.60 out of 12
Air Quality Not available.
Flu Activity Not available.
METAR KCRW 062154Z 28004KT 10SM SCT025 SCT300 M02/M09 A3040 RMK AO2 SLP310 T10221094

More Conditions Fewer Conditions

Pressure 30.45 in
Visibility 10.0 miles
Clouds Scattered Clouds 2500 ft
Scattered Clouds 30000 ft
Windchill 26 °F
Dew Point 16 °F
Humidity 67%
Rainfall in
Snow Depth Not available.
UV 1.0 out of 12
Pollen 1.60 out of 12
Air Quality Not available.
Flu Activity Not available.
METAR KCRW 062154Z 28004KT 10SM SCT025 SCT300 M02/M09 A3040 RMK AO2 SLP310 T10221094

More Conditions Fewer Conditions

10-Day Weather Forecast

Almanac

Astronomy

Mar. 06, 2015 Rise Set
Actual Time
Civil Twilight
Nautical Twilight
Astronomical Twilight
Moon
Length of Visible Light
Length of Day
Tomorrow will be .
, % of the Moon is Illuminated

Today's Extremes

State Highs State Lows

Community

WunderPhotos

Upload Photos

1,803,420 photos uploaded!

WunderBlogs® & News

Nearby

Air Quality

  Air Quality AQ Index Pollutant
Not available.

Snow Depth

Station Depth Elevation

Earthquake Activity

City Distance Mag. Time & Date
Minimum magnitude displayed is 2.5.

Coastal Water Temperatures

Place Temperature

Nearby Weather Stations